Time;durP1;ratioP1;P1;durP2;ratioP2;P2;SDS_P1;SDS_P2;PMS_P1;PMS_P2;Temp;Humidity;BMP_temperature;BMP_pressure;BME280_temperature;BME280_humidity;BME280_pressure;Samples;Min_cycle;Max_cycle;Signal;HPM_P1;HPM_P2
2022/03/30 00:00:12;;;;;;;15.23;10.50;;;9.90;99.90;;;;;;5017993;28;20037;-72
2022/03/30 00:02:38;;;;;;;13.57;9.90;;;9.90;99.90;;;;;;4991950;28;20033;-71
2022/03/30 00:05:04;;;;;;;17.73;11.57;;;9.90;99.90;;;;;;4991800;28;20097;-71
2022/03/30 00:07:32;;;;;;;18.38;11.57;;;9.90;99.90;;;;;;4991731;28;20018;-71
2022/03/30 00:10:02;;;;;;;16.70;11.40;;;9.80;99.90;;;;;;4991648;28;20022;-71
2022/03/30 00:12:29;;;;;;;26.80;14.35;;;9.70;99.90;;;;;;4974011;28;20037;-71
2022/03/30 00:14:54;;;;;;;26.77;15.13;;;9.80;99.90;;;;;;4991704;28;20022;-71
2022/03/30 00:17:20;;;;;;;29.63;16.20;;;9.70;99.90;;;;;;5001564;28;20049;-72
2022/03/30 00:19:45;;;;;;;23.95;14.85;;;9.70;99.90;;;;;;5003363;28;20510;-73
2022/03/30 00:22:11;;;;;;;23.15;14.75;;;9.70;99.90;;;;;;5001204;28;20407;-72
2022/03/30 00:24:38;;;;;;;22.95;13.73;;;9.70;99.90;;;;;;5022812;28;20033;-73
2022/03/30 00:27:06;;;;;;;22.27;14.05;;;9.70;99.90;;;;;;5003233;28;20491;-73
2022/03/30 00:29:31;;;;;;;26.38;15.95;;;9.60;99.90;;;;;;5033404;28;20029;-72
2022/03/30 00:31:57;;;;;;;25.20;14.75;;;9.50;99.90;;;;;;4980028;28;20027;-72
2022/03/30 00:34:23;;;;;;;27.25;15.23;;;9.50;99.90;;;;;;4994942;28;20476;-73
2022/03/30 00:36:48;;;;;;;26.35;16.30;;;9.50;99.90;;;;;;4977631;28;20026;-73
2022/03/30 00:39:16;;;;;;;29.10;15.98;;;9.40;99.90;;;;;;4994811;28;20037;-73
2022/03/30 00:41:42;;;;;;;27.38;15.02;;;9.20;99.90;;;;;;4994980;28;20028;-73
2022/03/30 00:44:12;;;;;;;27.80;16.17;;;9.20;99.90;;;;;;5026211;28;20092;-72
2022/03/30 00:46:38;;;;;;;31.25;17.27;;;9.10;99.90;;;;;;4994863;28;20022;-73
2022/03/30 00:49:05;;;;;;;30.40;17.65;;;9.00;99.90;;;;;;4977068;28;20462;-72
2022/03/30 00:51:31;;;;;;;32.85;18.40;;;9.00;99.90;;;;;;4994521;28;20101;-72
2022/03/30 00:53:57;;;;;;;33.97;19.00;;;9.20;99.90;;;;;;4977217;28;20396;-73
2022/03/30 00:56:25;;;;;;;30.85;19.02;;;9.00;99.90;;;;;;4977253;28;20023;-72
2022/03/30 00:58:50;;;;;;;38.08;21.02;;;9.00;99.90;;;;;;4976965;28;20030;-72
2022/03/30 01:01:16;;;;;;;37.65;21.98;;;9.10;99.90;;;;;;4994431;28;20034;-72
2022/03/30 01:03:42;;;;;;;37.28;22.08;;;9.10;99.90;;;;;;4976900;28;20080;-73
2022/03/30 01:06:07;;;;;;;33.88;20.25;;;9.10;99.90;;;;;;4994648;28;20026;-73
2022/03/30 01:08:33;;;;;;;36.67;20.67;;;9.10;99.90;;;;;;5000034;28;20030;-73
2022/03/30 01:11:00;;;;;;;35.85;20.35;;;9.10;99.90;;;;;;5022521;28;20029;-73
2022/03/30 01:13:26;;;;;;;37.47;20.13;;;9.00;99.90;;;;;;5021972;28;20026;-73
2022/03/30 01:15:51;;;;;;;34.75;21.30;;;8.80;99.90;;;;;;5011937;28;20025;-73
2022/03/30 01:18:17;;;;;;;39.15;22.50;;;8.80;99.90;;;;;;4976779;28;20400;-73
2022/03/30 01:20:47;;;;;;;36.50;22.67;;;9.00;99.90;;;;;;5023291;28;20383;-73
2022/03/30 01:23:12;;;;;;;41.17;23.48;;;8.90;99.90;;;;;;5024534;28;20498;-73
2022/03/30 01:25:38;;;;;;;39.15;23.45;;;8.90;99.90;;;;;;5005470;28;20030;-73
2022/03/30 01:28:04;;;;;;;42.65;22.23;;;8.90;99.90;;;;;;4994032;28;20045;-72
2022/03/30 01:33:14;;;;;;;46.40;24.27;;;9.00;99.90;;;;;;5006385;28;20036;-73
2022/03/30 01:35:40;;;;;;;44.47;24.35;;;8.80;99.90;;;;;;4994005;28;20399;-73
2022/03/30 01:38:05;;;;;;;44.67;24.25;;;8.90;99.90;;;;;;5016384;28;20138;-74
2022/03/30 01:40:31;;;;;;;41.22;24.05;;;8.80;99.90;;;;;;4993913;28;20428;-73
2022/03/30 01:42:57;;;;;;;47.40;25.05;;;8.80;99.90;;;;;;4993869;28;20045;-73
2022/03/30 01:45:22;;;;;;;42.03;24.98;;;8.80;99.90;;;;;;4976271;28;20054;-72
2022/03/30 01:47:57;;;;;;;44.35;24.42;;;8.80;99.90;;;;;;4993474;28;20054;-73
2022/03/30 01:50:25;;;;;;;44.70;24.63;;;8.90;99.90;;;;;;4993570;28;20026;-73
2022/03/30 01:52:51;;;;;;;48.45;26.00;;;8.80;99.90;;;;;;4993606;28;20661;-72
2022/03/30 01:55:17;;;;;;;46.40;24.70;;;8.80;99.90;;;;;;4983579;28;20033;-73
2022/03/30 01:57:43;;;;;;;42.88;24.42;;;8.60;99.90;;;;;;5014379;28;20027;-73
2022/03/30 02:00:11;;;;;;;45.75;26.52;;;8.60;99.90;;;;;;5007259;28;20027;-73
2022/03/30 02:02:37;;;;;;;48.58;26.77;;;8.60;99.90;;;;;;4997330;28;20373;-73
2022/03/30 02:05:04;;;;;;;45.88;24.70;;;8.60;99.90;;;;;;4990732;28;20088;-73
2022/03/30 02:07:29;;;;;;;44.22;25.13;;;8.70;99.90;;;;;;5008262;28;20018;-73
2022/03/30 02:09:54;;;;;;;48.05;26.45;;;8.60;99.90;;;;;;5009135;28;20030;-74
2022/03/30 02:12:20;;;;;;;46.80;25.20;;;8.60;99.90;;;;;;4992947;28;20066;-74
2022/03/30 02:14:47;;;;;;;47.88;26.77;;;8.60;99.90;;;;;;4993191;28;20031;-74
2022/03/30 02:17:13;;;;;;;45.47;27.15;;;8.40;99.90;;;;;;4980834;28;20022;-73
2022/03/30 02:19:38;;;;;;;42.22;24.23;;;8.50;99.90;;;;;;5000944;28;20041;-73
2022/03/30 02:22:04;;;;;;;44.63;26.55;;;8.50;99.90;;;;;;4992907;28;20033;-74
2022/03/30 02:24:29;;;;;;;44.85;25.13;;;8.50;99.90;;;;;;4989485;28;20065;-74
2022/03/30 02:26:55;;;;;;;42.10;24.92;;;8.50;99.90;;;;;;4996714;28;20404;-73
2022/03/30 02:29:20;;;;;;;44.63;25.45;;;8.50;99.90;;;;;;4995944;28;20033;-73
2022/03/30 02:31:47;;;;;;;49.10;25.92;;;8.50;99.90;;;;;;4989695;28;20474;-73
2022/03/30 02:34:13;;;;;;;44.20;25.15;;;8.60;99.90;;;;;;4992937;28;20050;-72
2022/03/30 02:36:39;;;;;;;44.08;26.52;;;8.60;99.90;;;;;;4992750;28;20070;-72
2022/03/30 02:39:05;;;;;;;46.38;26.52;;;8.60;99.90;;;;;;4975340;28;20061;-72
2022/03/30 02:41:31;;;;;;;44.60;26.27;;;8.50;99.90;;;;;;4979637;28;20050;-71
2022/03/30 02:43:56;;;;;;;51.60;27.08;;;8.50;99.90;;;;;;5009944;28;20430;-71
2022/03/30 02:46:22;;;;;;;47.95;28.45;;;8.50;99.90;;;;;;5024246;28;20014;-72
2022/03/30 02:48:48;;;;;;;47.92;27.75;;;8.50;99.90;;;;;;5009297;28;20038;-71
2022/03/30 02:51:13;;;;;;;48.60;27.20;;;8.40;99.90;;;;;;4994023;28;20418;-72
2022/03/30 02:53:39;;;;;;;46.17;26.50;;;8.50;99.90;;;;;;5009710;28;20034;-71
2022/03/30 02:56:05;;;;;;;48.35;28.90;;;8.50;99.90;;;;;;5006716;28;20026;-71
2022/03/30 02:58:31;;;;;;;41.13;24.65;;;8.50;99.90;;;;;;4992648;28;20022;-73
2022/03/30 03:00:57;;;;;;;46.33;26.77;;;8.50;99.90;;;;;;5014516;28;20026;-73
2022/03/30 03:03:23;;;;;;;44.80;26.52;;;8.40;99.90;;;;;;5018881;28;20024;-72
2022/03/30 03:05:49;;;;;;;47.72;25.85;;;8.40;99.90;;;;;;4997164;28;20037;-72
2022/03/30 03:08:15;;;;;;;49.13;26.70;;;8.40;99.90;;;;;;4992297;28;20396;-73
2022/03/30 03:10:43;;;;;;;45.25;26.33;;;8.30;99.90;;;;;;4974388;28;20030;-73
2022/03/30 03:13:09;;;;;;;45.65;27.15;;;8.30;99.90;;;;;;4992421;28;20503;-72
2022/03/30 03:15:36;;;;;;;47.03;25.98;;;8.30;99.90;;;;;;4992183;28;20038;-72
2022/03/30 03:18:03;;;;;;;45.08;26.02;;;8.40;99.90;;;;;;4992202;28;20045;-73
2022/03/30 03:20:29;;;;;;;44.33;25.25;;;8.40;99.90;;;;;;4974538;28;20172;-72
2022/03/30 03:22:56;;;;;;;45.63;25.25;;;8.40;99.90;;;;;;4974765;28;20026;-73
2022/03/30 03:25:21;;;;;;;46.83;26.70;;;8.40;99.90;;;;;;5011395;28;20510;-70
2022/03/30 03:27:47;;;;;;;43.58;26.23;;;8.40;99.90;;;;;;5012962;28;20049;-71
2022/03/30 03:30:14;;;;;;;44.90;26.17;;;8.40;99.90;;;;;;4997695;28;20029;-70
2022/03/30 03:32:40;;;;;;;44.15;26.63;;;8.40;99.90;;;;;;5016741;28;20025;-72
2022/03/30 03:35:09;;;;;;;48.58;26.45;;;8.30;99.90;;;;;;5005232;28;20508;-73
2022/03/30 03:37:35;;;;;;;47.53;27.73;;;8.30;99.90;;;;;;5006607;28;20030;-73
2022/03/30 03:40:01;;;;;;;45.17;26.95;;;8.30;99.90;;;;;;4974577;28;20579;-74
2022/03/30 03:42:26;;;;;;;43.90;26.10;;;8.40;99.90;;;;;;4986971;28;20057;-73
2022/03/30 03:44:52;;;;;;;46.88;27.30;;;8.40;99.90;;;;;;5016490;28;20097;-73
2022/03/30 03:47:17;;;;;;;56.28;35.25;;;8.30;99.90;;;;;;5006838;28;20105;-73
2022/03/30 03:49:43;;;;;;;65.25;43.28;;;8.30;99.90;;;;;;4992234;28;20113;-73
2022/03/30 03:52:08;;;;;;;54.92;35.97;;;8.30;99.90;;;;;;5015589;28;20491;-72
2022/03/30 03:54:34;;;;;;;51.08;29.75;;;8.40;99.90;;;;;;5016087;28;20034;-74
2022/03/30 03:56:59;;;;;;;48.83;28.50;;;8.50;99.90;;;;;;5020366;28;20395;-72
2022/03/30 03:59:25;;;;;;;46.75;27.10;;;8.40;99.90;;;;;;5013421;28;20566;-71
2022/03/30 04:01:51;;;;;;;43.72;26.02;;;8.30;99.90;;;;;;5012770;28;20096;-72
2022/03/30 04:04:17;;;;;;;43.72;25.05;;;8.30;99.90;;;;;;5008661;28;20026;-73
2022/03/30 04:06:42;;;;;;;45.25;24.95;;;8.30;99.90;;;;;;4995457;28;20146;-73
2022/03/30 04:09:08;;;;;;;42.40;23.35;;;8.50;99.90;;;;;;4995471;28;20022;-72
2022/03/30 04:11:34;;;;;;;41.65;23.98;;;8.60;99.90;;;;;;5004305;28;20391;-73
2022/03/30 04:13:59;;;;;;;45.83;24.23;;;8.60;99.90;;;;;;5021665;28;20258;-71
2022/03/30 04:16:25;;;;;;;40.88;24.90;;;8.60;99.90;;;;;;4995442;28;20038;-71
2022/03/30 04:18:51;;;;;;;41.67;24.20;;;8.60;99.90;;;;;;4998036;28;20076;-71
2022/03/30 04:21:16;;;;;;;43.05;25.20;;;8.60;99.90;;;;;;5010885;28;20022;-73
2022/03/30 04:23:42;;;;;;;37.55;23.67;;;8.70;99.90;;;;;;5023017;28;20026;-72
2022/03/30 04:26:11;;;;;;;44.10;25.55;;;8.70;99.90;;;;;;5017028;28;20036;-72
2022/03/30 04:28:40;;;;;;;42.38;23.77;;;8.60;99.90;;;;;;4995785;28;20029;-72
2022/03/30 04:31:07;;;;;;;40.15;23.83;;;8.60;99.90;;;;;;5005437;28;20029;-71
2022/03/30 04:33:33;;;;;;;42.35;24.30;;;8.60;99.90;;;;;;5015154;28;20081;-70
2022/03/30 04:35:58;;;;;;;37.30;22.48;;;8.70;99.90;;;;;;5001903;28;20124;-71
2022/03/30 04:38:24;;;;;;;38.90;23.67;;;8.70;99.90;;;;;;5008719;28;20027;-71
2022/03/30 04:40:49;;;;;;;42.15;24.88;;;8.70;99.90;;;;;;4990752;28;20030;-71
2022/03/30 04:43:15;;;;;;;40.00;22.38;;;8.60;99.90;;;;;;5001877;28;20026;-71
2022/03/30 04:45:40;;;;;;;46.30;26.27;;;8.60;99.90;;;;;;5002406;28;20485;-71
2022/03/30 04:48:06;;;;;;;49.75;27.15;;;8.30;99.90;;;;;;5007990;28;20118;-72
2022/03/30 04:50:32;;;;;;;47.22;26.02;;;8.20;99.90;;;;;;4994668;28;20499;-72
2022/03/30 04:52:57;;;;;;;46.78;27.00;;;8.20;99.90;;;;;;5013816;28;20037;-73
2022/03/30 04:55:23;;;;;;;56.22;32.22;;;8.30;99.90;;;;;;5002556;28;20030;-72
2022/03/30 04:57:48;;;;;;;53.90;32.75;;;8.30;99.90;;;;;;5007842;28;20126;-72
2022/03/30 05:00:14;;;;;;;46.45;28.52;;;8.20;99.90;;;;;;4994499;28;20096;-72
2022/03/30 05:02:40;;;;;;;52.65;29.52;;;8.20;99.90;;;;;;4995235;28;20103;-71
2022/03/30 05:05:10;;;;;;;50.65;28.55;;;8.20;99.90;;;;;;4996628;28;20026;-72
2022/03/30 05:07:39;;;;;;;46.85;28.55;;;8.20;99.90;;;;;;4999497;28;20026;-72
2022/03/30 05:10:08;;;;;;;53.13;31.00;;;8.00;99.90;;;;;;5005236;28;20054;-72
2022/03/30 05:12:34;;;;;;;52.10;30.55;;;8.00;99.90;;;;;;5027207;28;20081;-75
2022/03/30 05:14:59;;;;;;;51.38;30.35;;;8.00;99.90;;;;;;5020962;28;20105;-72
2022/03/30 05:17:25;;;;;;;54.10;29.48;;;8.00;99.90;;;;;;5005874;28;20025;-75
2022/03/30 05:19:50;;;;;;;50.28;30.40;;;7.90;99.90;;;;;;5021090;28;20048;-72
2022/03/30 05:22:16;;;;;;;49.50;28.65;;;8.00;99.90;;;;;;5014900;28;20502;-72
2022/03/30 05:24:42;;;;;;;47.95;28.58;;;8.00;99.90;;;;;;5016020;28;20089;-72
2022/03/30 05:27:09;;;;;;;42.17;25.27;;;8.10;99.90;;;;;;5012018;28;20109;-72
2022/03/30 05:29:35;;;;;;;39.95;23.85;;;8.20;99.90;;;;;;5018376;28;20017;-72
2022/03/30 05:32:01;;;;;;;36.50;23.38;;;8.30;99.90;;;;;;5001413;28;20044;-73
2022/03/30 05:34:27;;;;;;;43.80;24.38;;;8.30;99.90;;;;;;4982290;28;20484;-72
2022/03/30 05:36:52;;;;;;;38.60;22.38;;;8.40;99.90;;;;;;4994211;28;20084;-72
2022/03/30 05:39:18;;;;;;;36.63;23.50;;;8.50;99.90;;;;;;4994607;28;20030;-72
2022/03/30 05:41:43;;;;;;;44.00;26.35;;;8.50;99.90;;;;;;5020303;28;20479;-72
2022/03/30 05:44:09;;;;;;;46.50;28.38;;;8.50;99.90;;;;;;5005241;28;20388;-72
2022/03/30 05:46:36;;;;;;;50.22;28.98;;;8.30;99.90;;;;;;5001264;28;20385;-72
2022/03/30 05:49:03;;;;;;;55.90;31.50;;;8.30;99.90;;;;;;4999229;28;20030;-72
2022/03/30 05:51:29;;;;;;;52.08;29.48;;;8.30;99.90;;;;;;4976157;28;20077;-72
2022/03/30 05:53:54;;;;;;;55.10;32.30;;;8.20;99.90;;;;;;4994459;28;20023;-72
2022/03/30 05:56:59;;;;;;;59.05;32.70;;;8.20;99.90;;;;;;5008551;28;20101;-72
2022/03/30 05:59:05;;;;;;;59.33;31.80;;;8.20;99.90;;;;;;5010688;28;20029;-72
2022/03/30 06:01:31;;;;;;;57.75;33.85;;;8.20;99.90;;;;;;5010793;28;20034;-72
2022/03/30 06:03:56;;;;;;;63.67;34.30;;;8.10;99.90;;;;;;5013423;28;20034;-72
2022/03/30 06:06:22;;;;;;;57.55;32.40;;;8.00;99.90;;;;;;5013456;28;20472;-71
2022/03/30 06:08:47;;;;;;;57.95;32.13;;;8.10;99.90;;;;;;5021821;28;20025;-72
2022/03/30 06:11:13;;;;;;;60.33;34.58;;;8.20;99.90;;;;;;5023811;28;20017;-72
2022/03/30 06:13:38;;;;;;;55.03;32.42;;;8.10;99.90;;;;;;5007590;28;20678;-72
2022/03/30 06:16:04;;;;;;;58.55;33.22;;;8.20;99.90;;;;;;5007665;28;20041;-72
2022/03/30 06:18:30;;;;;;;52.60;31.38;;;8.20;99.90;;;;;;4987689;28;20022;-72
2022/03/30 06:20:55;;;;;;;59.38;31.90;;;8.20;99.90;;;;;;5012736;28;20033;-71
2022/03/30 06:23:21;;;;;;;57.30;32.53;;;8.30;99.90;;;;;;5023576;28;20049;-71
2022/03/30 06:25:46;;;;;;;54.63;32.05;;;8.20;99.90;;;;;;5024527;28;20514;-71
2022/03/30 06:28:12;;;;;;;54.80;31.73;;;8.30;99.90;;;;;;5000628;28;20031;-71
2022/03/30 06:30:38;;;;;;;58.53;32.67;;;8.50;99.90;;;;;;5011837;28;20531;-72
2022/03/30 06:33:04;;;;;;;55.08;31.77;;;8.30;99.90;;;;;;5021177;28;20125;-72
2022/03/30 06:35:30;;;;;;;56.05;31.50;;;8.40;99.90;;;;;;4996110;28;20037;-71
2022/03/30 06:37:55;;;;;;;51.15;31.13;;;8.60;99.90;;;;;;4992805;28;20030;-72
2022/03/30 06:40:21;;;;;;;53.78;31.90;;;8.60;99.90;;;;;;5008613;28;20105;-71
2022/03/30 06:42:48;;;;;;;52.42;29.95;;;8.70;99.90;;;;;;4998508;28;20502;-72
2022/03/30 06:45:14;;;;;;;52.88;30.30;;;8.70;99.90;;;;;;5002487;28;20022;-72
2022/03/30 06:47:40;;;;;;;50.03;30.15;;;8.70;99.90;;;;;;5005816;28;20516;-72
2022/03/30 06:50:07;;;;;;;54.03;30.30;;;8.80;99.90;;;;;;4975959;28;20029;-72
2022/03/30 06:52:35;;;;;;;52.75;31.08;;;8.80;99.90;;;;;;5008387;28;20053;-72
2022/03/30 06:55:01;;;;;;;54.40;33.00;;;8.70;99.90;;;;;;4992788;28;20077;-71
2022/03/30 06:57:27;;;;;;;54.58;33.25;;;8.70;99.90;;;;;;4976643;28;20030;-72
2022/03/30 06:59:53;;;;;;;57.42;31.90;;;8.70;99.90;;;;;;5001058;28;20029;-72
2022/03/30 07:02:19;;;;;;;57.33;33.05;;;8.60;99.90;;;;;;4995181;28;20430;-72
2022/03/30 07:04:44;;;;;;;53.85;32.25;;;8.70;99.90;;;;;;5002402;28;20061;-72
2022/03/30 07:12:38;;;;;;;55.58;32.88;;;8.80;99.90;;;;;;5000026;28;20124;-72
2022/03/30 07:15:04;;;;;;;54.13;31.55;;;8.80;99.90;;;;;;4997986;28;20539;-72
2022/03/30 07:17:30;;;;;;;58.05;33.30;;;8.60;99.90;;;;;;4999634;28;20030;-72
2022/03/30 07:19:56;;;;;;;59.97;33.00;;;8.50;99.90;;;;;;4997949;28;20471;-72
2022/03/30 07:22:21;;;;;;;58.60;33.97;;;8.60;99.90;;;;;;4999201;28;20026;-72
2022/03/30 07:24:47;;;;;;;57.80;33.58;;;8.40;99.90;;;;;;5011736;28;20022;-72
2022/03/30 07:27:13;;;;;;;57.35;32.92;;;8.50;99.90;;;;;;5004295;28;20030;-72
2022/03/30 07:29:38;;;;;;;60.67;34.63;;;8.60;99.90;;;;;;4987935;28;20480;-72
2022/03/30 07:32:04;;;;;;;58.42;35.65;;;8.40;99.90;;;;;;4997482;28;20026;-72
2022/03/30 07:34:30;;;;;;;59.42;35.60;;;8.30;99.90;;;;;;5009437;28;20033;-72
2022/03/30 07:36:57;;;;;;;59.83;36.63;;;8.40;99.90;;;;;;4996236;28;20034;-72
2022/03/30 07:39:22;;;;;;;61.25;35.20;;;8.40;99.90;;;;;;5009197;28;20148;-72
2022/03/30 07:41:48;;;;;;;65.47;36.75;;;8.50;99.90;;;;;;4978399;28;20106;-72
2022/03/30 07:44:14;;;;;;;57.47;34.65;;;8.50;99.90;;;;;;4996166;28;20030;-72
2022/03/30 07:46:40;;;;;;;62.25;35.65;;;8.30;99.90;;;;;;5003389;28;20160;-72
2022/03/30 07:49:06;;;;;;;59.35;34.33;;;8.40;99.90;;;;;;5001562;28;20506;-71
2022/03/30 07:51:31;;;;;;;57.47;33.13;;;8.60;99.90;;;;;;4995879;28;20030;-72
2022/03/30 07:53:57;;;;;;;56.35;33.08;;;8.90;99.90;;;;;;4978290;28;20053;-72
2022/03/30 07:56:23;;;;;;;62.22;34.55;;;8.80;99.90;;;;;;5003198;28;20041;-72
2022/03/30 07:58:49;;;;;;;63.38;35.75;;;8.90;99.90;;;;;;5002495;28;20050;-72
2022/03/30 08:01:18;;;;;;;65.13;34.85;;;9.00;99.90;;;;;;5007549;28;20492;-72
2022/03/30 08:03:44;;;;;;;61.65;35.85;;;8.60;99.90;;;;;;5010477;28;20018;-72
2022/03/30 08:06:10;;;;;;;61.90;34.50;;;8.50;99.90;;;;;;5007399;28;20547;-72
2022/03/30 08:08:36;;;;;;;65.03;35.08;;;8.40;99.90;;;;;;4992595;28;20029;-71
2022/03/30 08:11:02;;;;;;;70.50;38.33;;;8.20;99.90;;;;;;5015033;28;20057;-72
2022/03/30 08:13:27;;;;;;;67.90;36.65;;;8.20;99.90;;;;;;5013709;28;20036;-72
2022/03/30 08:15:53;;;;;;;72.07;37.90;;;8.10;99.90;;;;;;4978096;28;20085;-72
2022/03/30 08:18:19;;;;;;;67.00;37.50;;;8.20;99.90;;;;;;5008609;28;20092;-72
2022/03/30 08:23:29;;;;;;;75.53;38.55;;;8.00;99.90;;;;;;5012250;28;20107;-71
2022/03/30 08:25:54;;;;;;;68.18;37.30;;;8.00;99.90;;;;;;5014953;28;20017;-71
2022/03/30 08:28:20;;;;;;;100.90;48.58;;;8.00;99.90;;;;;;4997262;28;20030;-71
2022/03/30 08:30:48;;;;;;;98.22;50.85;;;8.00;99.90;;;;;;5014693;28;20042;-71
2022/03/30 08:33:16;;;;;;;109.82;56.50;;;8.00;99.90;;;;;;4993311;28;20026;-72
2022/03/30 08:35:42;;;;;;;105.05;54.65;;;7.80;99.90;;;;;;4995118;28;20061;-71
2022/03/30 08:38:08;;;;;;;103.53;53.30;;;8.00;99.90;;;;;;4977677;28;20033;-71
2022/03/30 08:40:34;;;;;;;107.97;57.67;;;8.20;99.90;;;;;;4988233;28;20411;-72
2022/03/30 08:43:00;;;;;;;86.65;47.17;;;8.10;99.90;;;;;;5001239;28;20064;-71
2022/03/30 08:45:25;;;;;;;94.03;51.03;;;8.10;99.90;;;;;;5014634;28;20223;-71
2022/03/30 08:47:51;;;;;;;100.68;52.17;;;8.10;99.90;;;;;;5014475;28;20034;-72
2022/03/30 08:50:17;;;;;;;101.90;52.88;;;8.30;99.90;;;;;;4985981;28;20033;-71
2022/03/30 08:52:45;;;;;;;89.68;48.85;;;8.50;99.90;;;;;;5012136;28;20030;-72
2022/03/30 08:55:10;;;;;;;91.45;48.83;;;8.70;99.90;;;;;;5014501;28;20025;-72
2022/03/30 08:57:37;;;;;;;85.07;46.33;;;8.80;99.90;;;;;;5014249;28;20042;-71
2022/03/30 09:00:13;;;;;;;75.50;42.13;;;8.70;99.90;;;;;;5003191;28;20389;-72
2022/03/30 09:02:45;;;;;;;79.75;44.35;;;8.90;99.90;;;;;;5007698;28;20022;-71
2022/03/30 09:05:12;;;;;;;76.18;44.45;;;9.20;99.90;;;;;;4994819;28;20034;-71
2022/03/30 09:07:39;;;;;;;71.57;40.72;;;9.20;99.90;;;;;;4994642;28;20045;-71
2022/03/30 09:10:05;;;;;;;73.28;39.63;;;9.30;99.90;;;;;;4994501;28;20019;-72
2022/03/30 09:12:31;;;;;;;70.53;39.53;;;9.30;99.90;;;;;;5000984;28;20022;-72
2022/03/30 09:15:04;;;;;;;71.38;40.15;;;9.10;99.90;;;;;;5000985;28;20030;-72
2022/03/30 09:17:37;;;;;;;72.82;39.80;;;9.20;99.90;;;;;;4976885;28;20029;-72
2022/03/30 09:20:11;;;;;;;72.93;41.50;;;9.20;99.90;;;;;;4994405;28;20076;-72
2022/03/30 09:22:41;;;;;;;67.57;38.92;;;9.30;99.90;;;;;;4994198;28;20035;-71
2022/03/30 09:25:08;;;;;;;76.82;40.72;;;9.40;99.90;;;;;;4993810;28;20026;-72
2022/03/30 09:27:34;;;;;;;79.63;40.70;;;9.30;99.90;;;;;;5003221;28;20117;-72
2022/03/30 09:30:01;;;;;;;75.88;39.97;;;9.50;99.90;;;;;;4993592;28;20122;-72
2022/03/30 09:32:29;;;;;;;68.45;37.15;;;9.40;99.90;;;;;;4999983;28;20022;-72
2022/03/30 09:34:55;;;;;;;66.50;37.38;;;9.20;99.90;;;;;;4994163;28;20506;-72
2022/03/30 09:37:21;;;;;;;63.47;37.05;;;9.20;99.90;;;;;;5004763;28;20041;-72
2022/03/30 09:39:48;;;;;;;75.43;40.97;;;9.40;99.90;;;;;;5000359;28;20026;-72
2022/03/30 09:42:14;;;;;;;78.43;41.25;;;9.30;99.90;;;;;;4985130;28;20107;-72
2022/03/30 09:44:52;;;;;;;78.82;42.30;;;9.00;99.90;;;;;;4976419;28;20117;-71
2022/03/30 09:47:19;;;;;;;87.05;43.58;;;9.00;99.90;;;;;;4988676;28;20026;-72
2022/03/30 09:49:54;;;;;;;82.65;42.65;;;9.00;99.90;;;;;;5032663;22;20054;-76
2022/03/30 09:52:21;;;;;;;96.00;47.85;;;9.00;99.90;;;;;;5013152;28;20040;-76
2022/03/30 09:54:58;;;;;;;92.05;44.78;;;9.00;99.90;;;;;;5012384;28;20022;-76
2022/03/30 09:57:40;;;;;;;97.45;47.40;;;8.90;99.90;;;;;;5015383;28;20494;-75
2022/03/30 10:00:12;;;;;;;94.45;48.70;;;9.00;99.90;;;;;;5021239;28;20459;-75
2022/03/30 10:02:39;;;;;;;100.50;48.92;;;8.70;99.90;;;;;;5021218;28;20494;-76
2022/03/30 10:05:07;;;;;;;107.38;53.58;;;8.60;99.90;;;;;;5021879;28;20026;-76
2022/03/30 10:07:33;;;;;;;114.32;55.47;;;8.70;99.90;;;;;;5023009;28;20056;-75
2022/03/30 10:09:59;;;;;;;108.70;53.80;;;8.80;99.90;;;;;;5027699;28;20021;-75
2022/03/30 10:12:26;;;;;;;118.65;56.58;;;8.60;99.90;;;;;;5026161;28;20025;-75
2022/03/30 10:14:53;;;;;;;124.57;59.35;;;8.40;99.90;;;;;;5024436;28;20059;-75
2022/03/30 10:17:19;;;;;;;133.93;66.53;;;8.50;99.90;;;;;;5020170;28;20022;-76
2022/03/30 10:19:46;;;;;;;117.45;57.35;;;8.50;99.90;;;;;;5018721;28;20030;-76
2022/03/30 10:22:34;;;;;;;115.50;56.58;;;8.30;99.90;;;;;;4997616;28;20056;-75
2022/03/30 10:25:33;;;;;;;114.03;57.03;;;8.40;99.90;;;;;;5014378;28;20375;-77
2022/03/30 10:28:30;;;;;;;132.73;61.90;;;8.50;99.90;;;;;;5013696;28;20014;-76
2022/03/30 10:30:57;;;;;;;145.73;73.88;;;8.50;99.90;;;;;;5017633;28;20026;-76
2022/03/30 10:33:32;;;;;;;146.55;68.85;;;8.40;99.90;;;;;;5024225;28;20026;-76
2022/03/30 10:35:59;;;;;;;125.57;64.75;;;8.30;99.90;;;;;;5014932;28;20022;-76
2022/03/30 10:38:25;;;;;;;178.65;76.25;;;8.30;99.90;;;;;;5001380;28;20030;-75
2022/03/30 10:41:06;;;;;;;139.95;69.57;;;8.40;99.90;;;;;;5020248;28;20026;-76
2022/03/30 10:43:32;;;;;;;150.85;76.03;;;8.40;99.90;;;;;;5017375;28;20033;-75
2022/03/30 10:46:02;;;;;;;143.93;73.53;;;8.20;99.90;;;;;;5022901;28;20630;-76
2022/03/30 10:48:34;;;;;;;133.40;68.57;;;8.20;99.90;;;;;;5024806;28;20029;-75
2022/03/30 10:51:13;;;;;;;130.60;67.57;;;8.20;99.90;;;;;;5004032;28;20029;-75
2022/03/30 10:53:47;;;;;;;152.38;75.45;;;8.10;99.90;;;;;;5024007;28;20033;-75
2022/03/30 10:56:20;;;;;;;149.27;71.47;;;8.20;99.90;;;;;;5023737;28;20029;-76
2022/03/30 10:59:00;;;;;;;122.75;65.20;;;8.20;99.90;;;;;;5016172;28;20052;-76
2022/03/30 11:01:28;;;;;;;136.75;69.82;;;7.90;99.90;;;;;;5007570;28;20026;-76
2022/03/30 11:04:13;;;;;;;145.38;72.38;;;7.80;99.90;;;;;;5018038;28;20014;-75
2022/03/30 11:06:42;;;;;;;131.20;65.40;;;7.80;99.90;;;;;;5023673;28;20020;-75
2022/03/30 11:09:09;;;;;;;132.23;70.60;;;7.90;99.90;;;;;;5021041;28;20104;-76
2022/03/30 11:11:43;;;;;;;124.90;66.18;;;7.90;99.90;;;;;;5013542;28;20029;-76
2022/03/30 11:14:32;;;;;;;133.95;69.70;;;7.80;99.90;;;;;;5004756;28;20018;-76
2022/03/30 11:17:02;;;;;;;122.10;66.60;;;7.80;99.90;;;;;;5003101;28;20033;-76
2022/03/30 11:19:48;;;;;;;125.03;66.97;;;7.60;99.90;;;;;;5020047;28;20057;-75
2022/03/30 11:22:17;;;;;;;118.25;65.80;;;7.60;99.90;;;;;;5022372;28;20425;-76
2022/03/30 11:24:44;;;;;;;125.05;66.75;;;7.50;99.90;;;;;;5022921;28;20020;-76
2022/03/30 11:27:10;;;;;;;122.35;65.35;;;7.30;99.90;;;;;;5022469;28;20025;-76
2022/03/30 11:29:48;;;;;;;120.18;63.88;;;7.30;99.90;;;;;;5022837;28;20021;-76
2022/03/30 11:32:28;;;;;;;119.65;66.53;;;7.30;99.90;;;;;;5007326;28;20017;-76
2022/03/30 11:35:00;;;;;;;124.45;64.05;;;7.10;99.90;;;;;;5022523;28;20383;-76
2022/03/30 11:37:31;;;;;;;122.10;69.43;;;7.10;99.90;;;;;;5005515;28;20021;-76
2022/03/30 11:40:20;;;;;;;118.05;66.70;;;7.00;99.90;;;;;;5003574;28;20030;-75
2022/03/30 11:42:58;;;;;;;124.45;69.82;;;6.80;99.90;;;;;;5021202;28;20155;-76
2022/03/30 11:45:26;;;;;;;118.07;62.17;;;6.60;99.90;;;;;;5010773;28;20041;-76
2022/03/30 11:47:53;;;;;;;119.50;65.72;;;6.60;99.90;;;;;;5022133;28;20033;-77
2022/03/30 11:50:28;;;;;;;118.57;63.72;;;6.80;99.90;;;;;;5022768;28;20043;-76
2022/03/30 11:52:54;;;;;;;114.30;65.85;;;6.80;99.90;;;;;;5003232;28;20025;-76
2022/03/30 11:55:20;;;;;;;110.57;63.03;;;6.70;99.90;;;;;;4997777;28;20029;-75
2022/03/30 11:57:46;;;;;;;110.03;62.65;;;6.80;99.90;;;;;;5020822;28;20022;-76
2022/03/30 12:00:12;;;;;;;110.10;61.17;;;6.80;99.90;;;;;;5008953;28;20041;-74
2022/03/30 12:02:41;;;;;;;105.03;60.38;;;6.90;99.90;;;;;;5019650;28;20029;-76
2022/03/30 12:05:08;;;;;;;105.72;59.90;;;6.70;99.90;;;;;;5026152;28;20032;-75
2022/03/30 12:07:38;;;;;;;104.30;58.80;;;6.60;99.90;;;;;;5019716;28;20026;-76
2022/03/30 12:10:05;;;;;;;95.68;56.10;;;6.60;99.90;;;;;;5024680;28;20040;-76
2022/03/30 12:12:40;;;;;;;90.60;54.47;;;6.80;99.90;;;;;;5006193;28;20029;-77
2022/03/30 12:15:12;;;;;;;97.82;56.83;;;6.90;99.90;;;;;;5002648;28;20034;-75
2022/03/30 12:17:39;;;;;;;83.03;54.45;;;6.90;99.90;;;;;;5020509;28;20024;-75
2022/03/30 12:20:07;;;;;;;82.03;49.78;;;7.00;99.90;;;;;;5024660;28;20021;-76
2022/03/30 12:22:34;;;;;;;96.55;55.13;;;7.00;99.90;;;;;;5025460;28;20128;-75
2022/03/30 12:25:00;;;;;;;97.88;54.58;;;6.80;99.90;;;;;;5018177;28;20076;-76
2022/03/30 12:27:26;;;;;;;94.10;54.53;;;6.70;99.90;;;;;;5021626;28;20093;-76
2022/03/30 12:29:56;;;;;;;85.30;50.25;;;6.80;99.90;;;;;;5014410;28;20041;-77
2022/03/30 12:32:26;;;;;;;98.35;55.50;;;6.70;99.90;;;;;;4999415;28;20028;-76
2022/03/30 12:35:12;;;;;;;105.22;56.13;;;6.60;99.90;;;;;;5019144;28;20018;-75
2022/03/30 12:37:41;;;;;;;79.43;49.53;;;6.50;99.90;;;;;;5025444;28;20375;-76
2022/03/30 12:40:20;;;;;;;79.68;48.60;;;6.70;99.90;;;;;;5008109;28;20030;-76
2022/03/30 12:42:49;;;;;;;88.72;49.67;;;6.80;99.90;;;;;;4993045;28;20042;-75
2022/03/30 12:45:17;;;;;;;77.30;47.72;;;6.80;99.90;;;;;;5022631;28;20080;-74
2022/03/30 12:47:54;;;;;;;81.15;49.17;;;6.90;99.90;;;;;;4996873;28;20029;-76